createdAt,value
2023-03-21T00:01:55.065Z,11.40
2023-03-21T00:04:24.760Z,12.20
2023-03-21T00:06:52.066Z,12.20
2023-03-21T00:09:19.717Z,11.60
2023-03-21T00:11:46.859Z,11.90
2023-03-21T00:14:20.152Z,12.20
2023-03-21T00:16:50.993Z,13.20
2023-03-21T00:19:21.069Z,12.60
2023-03-21T00:22:06.053Z,13.50
2023-03-21T00:24:35.918Z,12.70
2023-03-21T00:27:29.887Z,11.60
2023-03-21T00:29:50.649Z,11.80
2023-03-21T00:32:18.739Z,11.40
2023-03-21T00:34:59.565Z,12.10
2023-03-21T00:37:29.610Z,12.30
2023-03-21T00:39:56.736Z,12.80
2023-03-21T00:42:24.187Z,12.30
2023-03-21T00:44:51.490Z,12.30
2023-03-21T00:47:18.577Z,12.70
2023-03-21T00:49:46.201Z,12.30
2023-03-21T00:52:20.190Z,11.80
2023-03-21T00:54:52.388Z,11.60
2023-03-21T00:57:22.029Z,10.40
2023-03-21T00:59:51.352Z,10.70
2023-03-21T01:02:23.355Z,11.80
2023-03-21T01:04:50.968Z,11.30
2023-03-21T01:07:18.182Z,11.40
2023-03-21T01:09:45.417Z,10.50
2023-03-21T01:12:12.800Z,10.80
2023-03-21T01:14:40.568Z,10.20
2023-03-21T01:17:07.736Z,10.80
2023-03-21T01:19:50.678Z,11.20
2023-03-21T01:22:18.952Z,11.40
2023-03-21T01:24:54.128Z,11.30
2023-03-21T01:27:22.576Z,9.40
2023-03-21T01:29:49.685Z,10.40
2023-03-21T01:32:17.284Z,8.60
2023-03-21T01:34:44.535Z,8.90
2023-03-21T01:37:11.558Z,9.40
2023-03-21T01:39:38.814Z,9.60
2023-03-21T01:42:05.998Z,10.30
2023-03-21T01:44:52.063Z,9.40
2023-03-21T01:47:19.035Z,10.00
2023-03-21T01:49:49.819Z,9.20
2023-03-21T01:52:36.459Z,10.50
2023-03-21T01:55:07.690Z,10.30
2023-03-21T01:57:51.877Z,10.30
2023-03-21T02:00:29.784Z,10.30
2023-03-21T02:03:11.337Z,9.80
2023-03-21T02:05:48.873Z,9.40
2023-03-21T02:08:16.777Z,9.80
2023-03-21T02:10:44.687Z,9.30
2023-03-21T02:13:11.913Z,10.00
2023-03-21T02:15:42.740Z,10.30
2023-03-21T02:18:28.228Z,11.60
2023-03-21T02:20:55.193Z,10.00
2023-03-21T02:23:37.364Z,9.70
2023-03-21T02:26:41.268Z,10.50
2023-03-21T02:31:52.404Z,12.00
2023-03-21T02:34:46.691Z,12.30
2023-03-21T02:37:36.622Z,12.10
2023-03-21T02:40:23.037Z,12.30
2023-03-21T02:43:01.455Z,11.70
2023-03-21T02:45:43.245Z,11.00
2023-03-21T02:48:25.480Z,11.50
2023-03-21T02:50:57.862Z,11.90
2023-03-21T02:53:29.416Z,12.10
2023-03-21T02:55:57.327Z,12.10
2023-03-21T02:58:26.072Z,11.80
2023-03-21T03:00:56.630Z,11.20
2023-03-21T03:03:34.099Z,11.30
2023-03-21T03:06:03.947Z,11.60
2023-03-21T03:08:56.075Z,10.90
2023-03-21T03:11:30.467Z,11.10
2023-03-21T03:13:58.201Z,11.40
2023-03-21T03:16:50.565Z,10.10
2023-03-21T03:19:29.221Z,11.40
2023-03-21T03:22:01.792Z,12.30
2023-03-21T03:24:34.488Z,10.40
2023-03-21T03:27:04.341Z,11.00
2023-03-21T03:29:34.770Z,11.20
2023-03-21T03:32:16.155Z,11.70
2023-03-21T03:34:49.848Z,10.30
2023-03-21T03:37:20.235Z,11.20
2023-03-21T03:40:08.642Z,10.60
2023-03-21T03:42:38.400Z,9.80
2023-03-21T03:45:06.816Z,10.70
2023-03-21T03:47:56.457Z,10.90
2023-03-21T03:50:32.050Z,11.10
2023-03-21T03:56:00.378Z,9.00
2023-03-21T03:58:43.029Z,9.60
2023-03-21T04:01:12.729Z,9.60
2023-03-21T04:03:49.849Z,10.30
2023-03-21T04:06:19.740Z,10.00
2023-03-21T04:08:47.006Z,9.20
2023-03-21T04:11:16.611Z,9.80
2023-03-21T04:13:43.860Z,9.00
2023-03-21T04:16:13.105Z,8.00
2023-03-21T04:18:42.108Z,8.70
2023-03-21T04:21:13.624Z,8.60
2023-03-21T04:23:41.791Z,9.40
2023-03-21T04:26:08.942Z,8.70
2023-03-21T04:28:37.381Z,7.80
2023-03-21T04:31:24.218Z,7.40
2023-03-21T04:33:52.085Z,8.70
2023-03-21T04:36:27.842Z,7.80
2023-03-21T04:38:57.389Z,7.70
2023-03-21T04:41:24.513Z,7.80
2023-03-21T04:43:52.722Z,7.90
2023-03-21T04:46:19.942Z,8.30
2023-03-21T04:48:47.442Z,7.60
2023-03-21T04:51:14.769Z,7.70
2023-03-21T04:53:45.395Z,7.10
2023-03-21T04:56:12.872Z,6.80
2023-03-21T04:58:40.933Z,7.90
2023-03-21T05:01:09.015Z,9.40
2023-03-21T05:03:40.342Z,7.90
2023-03-21T05:06:08.847Z,8.30
2023-03-21T05:08:36.814Z,7.90
2023-03-21T05:11:04.984Z,8.20
2023-03-21T05:13:32.040Z,8.20
2023-03-21T05:15:59.197Z,8.00
2023-03-21T05:18:26.687Z,8.10
2023-03-21T05:20:55.548Z,8.70
2023-03-21T05:23:23.830Z,8.80
2023-03-21T05:25:51.209Z,9.00
2023-03-21T05:28:20.907Z,8.10
2023-03-21T05:30:48.014Z,7.70
2023-03-21T05:33:15.576Z,8.50
2023-03-21T05:35:42.990Z,8.00
2023-03-21T05:38:10.435Z,8.20
2023-03-21T05:40:37.495Z,9.40
2023-03-21T05:43:04.546Z,8.30
2023-03-21T05:45:32.204Z,8.00
2023-03-21T05:47:59.502Z,8.30
2023-03-21T05:50:26.923Z,7.70
2023-03-21T05:52:53.970Z,8.10
2023-03-21T05:55:21.353Z,8.80
2023-03-21T05:57:48.607Z,7.70
2023-03-21T06:00:16.561Z,7.30
2023-03-21T06:02:44.277Z,8.70
2023-03-21T06:05:11.587Z,8.00
2023-03-21T06:07:38.625Z,7.60
2023-03-21T06:10:06.815Z,7.90
2023-03-21T06:12:33.885Z,8.30
2023-03-21T06:15:01.990Z,8.10
2023-03-21T06:17:29.008Z,7.80
2023-03-21T06:19:56.463Z,8.00
2023-03-21T06:22:23.718Z,6.90
2023-03-21T06:24:50.772Z,7.40
2023-03-21T06:27:17.953Z,7.50
2023-03-21T06:29:46.621Z,7.50
2023-03-21T06:32:13.774Z,7.00
2023-03-21T06:34:41.146Z,7.90
2023-03-21T06:37:08.504Z,7.30
2023-03-21T06:39:35.851Z,6.70
2023-03-21T06:42:03.211Z,8.60
2023-03-21T06:44:30.359Z,7.00
2023-03-21T06:46:57.961Z,7.60
2023-03-21T06:49:26.184Z,7.20
2023-03-21T06:51:53.776Z,6.80
2023-03-21T06:54:21.333Z,6.70
2023-03-21T06:56:48.789Z,7.10
2023-03-21T06:59:16.153Z,7.00
2023-03-21T07:01:43.412Z,6.70
2023-03-21T07:04:11.076Z,7.10
2023-03-21T07:06:38.524Z,7.30
2023-03-21T07:09:06.533Z,7.30
2023-03-21T07:11:34.164Z,7.20
2023-03-21T07:14:01.794Z,7.70
2023-03-21T07:16:28.943Z,7.00
2023-03-21T07:18:56.884Z,7.40
2023-03-21T07:21:24.030Z,7.70
2023-03-21T07:23:50.969Z,6.80
2023-03-21T07:26:18.733Z,7.30
2023-03-21T07:28:45.985Z,7.50
2023-03-21T07:31:15.479Z,8.00
2023-03-21T07:33:42.472Z,7.20
2023-03-21T07:36:15.907Z,6.60
2023-03-21T07:38:44.538Z,6.60
2023-03-21T07:41:12.209Z,6.30
2023-03-21T07:43:39.627Z,6.90
2023-03-21T07:46:06.968Z,7.50
2023-03-21T07:48:34.284Z,5.90
2023-03-21T07:51:02.514Z,5.90
2023-03-21T07:53:29.653Z,6.50
2023-03-21T07:55:57.496Z,6.00
2023-03-21T07:58:25.397Z,5.50
2023-03-21T08:00:53.411Z,5.80
2023-03-21T08:03:20.549Z,5.80
2023-03-21T08:05:47.736Z,5.90
2023-03-21T08:08:14.909Z,6.10
2023-03-21T08:10:45.316Z,6.00
2023-03-21T08:13:13.348Z,5.60
2023-03-21T08:15:42.566Z,6.00
2023-03-21T08:18:10.979Z,5.40
2023-03-21T08:20:38.264Z,5.60
2023-03-21T08:23:05.721Z,6.10
2023-03-21T08:25:33.525Z,6.70
2023-03-21T08:28:00.945Z,5.40
2023-03-21T08:30:29.410Z,6.60
2023-03-21T08:33:00.898Z,6.30
2023-03-21T08:35:30.341Z,5.60
2023-03-21T08:37:57.951Z,5.50
2023-03-21T08:40:25.200Z,5.50
2023-03-21T08:42:52.249Z,5.20
2023-03-21T08:45:19.904Z,5.50
2023-03-21T08:47:48.026Z,5.70
2023-03-21T08:50:21.846Z,5.40
2023-03-21T08:52:49.610Z,5.50
2023-03-21T08:55:18.453Z,4.80
2023-03-21T08:57:46.131Z,5.10
2023-03-21T09:00:17.459Z,4.90
2023-03-21T09:02:47.216Z,5.50
2023-03-21T09:05:14.860Z,5.30
2023-03-21T09:07:42.337Z,4.80
2023-03-21T09:10:21.454Z,5.30
2023-03-21T09:12:55.114Z,5.70
2023-03-21T09:15:26.629Z,5.30
2023-03-21T09:17:54.857Z,5.10
2023-03-21T09:20:26.557Z,5.80
2023-03-21T09:22:54.806Z,5.30
2023-03-21T09:25:22.269Z,5.60
2023-03-21T09:27:50.061Z,5.40
2023-03-21T09:30:19.290Z,5.20
2023-03-21T09:32:50.711Z,5.60
2023-03-21T09:35:19.489Z,5.50
2023-03-21T09:37:50.539Z,5.50
2023-03-21T09:40:21.562Z,5.70
2023-03-21T09:43:03.218Z,5.60
2023-03-21T09:45:47.606Z,5.80
2023-03-21T09:48:47.040Z,5.50
2023-03-21T09:51:22.560Z,5.60
2023-03-21T09:53:50.925Z,5.50
2023-03-21T09:56:19.375Z,4.80
2023-03-21T09:58:53.310Z,5.60
2023-03-21T10:01:38.475Z,6.10
2023-03-21T10:04:07.538Z,5.50
2023-03-21T10:06:39.530Z,5.30
2023-03-21T10:09:12.717Z,5.60
2023-03-21T10:12:03.846Z,5.00
2023-03-21T10:14:36.291Z,6.20
2023-03-21T10:17:24.740Z,6.60
2023-03-21T10:19:57.629Z,5.50
2023-03-21T10:22:27.553Z,6.20
2023-03-21T10:24:54.794Z,6.00
2023-03-21T10:27:22.567Z,5.80
2023-03-21T10:29:53.419Z,5.90
2023-03-21T10:32:23.101Z,5.00
2023-03-21T10:37:24.630Z,4.70
2023-03-21T10:39:54.509Z,5.00
2023-03-21T10:42:25.030Z,4.80
2023-03-21T10:44:54.612Z,5.10
2023-03-21T10:47:27.412Z,5.40
2023-03-21T10:50:11.062Z,5.00
2023-03-21T10:52:43.552Z,5.60
2023-03-21T10:55:32.339Z,4.70
2023-03-21T10:58:08.858Z,4.90
2023-03-21T11:00:39.792Z,5.70
2023-03-21T11:03:08.734Z,4.90
2023-03-21T11:05:40.986Z,5.00
2023-03-21T11:08:15.631Z,5.20
2023-03-21T11:10:51.857Z,5.30
2023-03-21T11:13:25.469Z,4.60
2023-03-21T11:15:56.347Z,5.00
2023-03-21T11:18:26.021Z,4.70
2023-03-21T11:20:59.193Z,5.00
2023-03-21T11:23:29.425Z,5.10
2023-03-21T11:25:58.548Z,4.40
2023-03-21T11:28:33.557Z,4.90
2023-03-21T11:31:02.792Z,4.50
2023-03-21T11:33:42.122Z,5.10
2023-03-21T11:36:18.771Z,4.20
2023-03-21T11:38:50.694Z,4.40
2023-03-21T11:41:32.788Z,4.20
2023-03-21T11:44:01.411Z,5.10
2023-03-21T11:46:31.507Z,5.10
2023-03-21T11:49:00.167Z,4.70
2023-03-21T11:51:48.353Z,4.60
2023-03-21T11:54:21.654Z,4.00
2023-03-21T11:56:55.351Z,4.70
2023-03-21T11:59:57.363Z,4.40
2023-03-21T12:02:45.460Z,4.40
2023-03-21T12:05:35.286Z,3.70
2023-03-21T12:08:27.418Z,4.10
2023-03-21T12:11:26.291Z,4.20
2023-03-21T12:14:11.047Z,4.10
2023-03-21T12:16:56.733Z,4.00
2023-03-21T12:19:29.912Z,4.30
2023-03-21T12:22:31.766Z,4.90
2023-03-21T12:25:29.314Z,4.70
2023-03-21T12:28:03.939Z,3.90
2023-03-21T12:30:48.997Z,4.10
2023-03-21T12:33:25.773Z,4.70
2023-03-21T12:36:17.421Z,4.90
2023-03-21T12:39:10.867Z,4.20
2023-03-21T12:41:44.138Z,3.90
2023-03-21T12:44:16.487Z,3.80
2023-03-21T12:46:56.689Z,4.60
2023-03-21T12:49:33.935Z,4.20
2023-03-21T12:52:28.867Z,3.90
2023-03-21T12:55:10.101Z,4.00
2023-03-21T12:57:56.487Z,4.30
2023-03-21T13:00:47.978Z,4.40
2023-03-21T13:03:30.580Z,4.00
2023-03-21T13:06:07.690Z,4.00
2023-03-21T13:08:39.361Z,4.60
2023-03-21T13:11:08.690Z,4.60
2023-03-21T13:13:41.755Z,4.60
2023-03-21T13:16:31.068Z,4.90
2023-03-21T13:19:01.332Z,4.70
2023-03-21T13:21:49.665Z,4.50
2023-03-21T13:24:49.938Z,3.80
2023-03-21T13:27:32.837Z,4.90
2023-03-21T13:30:20.199Z,4.60
2023-03-21T13:32:50.230Z,4.90
2023-03-21T13:35:29.151Z,4.50
2023-03-21T13:38:02.254Z,4.40
2023-03-21T13:40:37.725Z,4.30
2023-03-21T13:43:05.254Z,3.90
2023-03-21T13:45:45.230Z,3.60
2023-03-21T13:48:30.706Z,3.70
2023-03-21T13:51:06.044Z,3.40
2023-03-21T13:53:41.425Z,3.00
2023-03-21T13:56:14.852Z,3.50
2023-03-21T13:58:44.606Z,4.10
2023-03-21T14:01:36.429Z,3.10
2023-03-21T14:04:17.996Z,3.00
2023-03-21T14:06:57.912Z,3.20
2023-03-21T14:09:36.422Z,3.00
2023-03-21T14:12:07.844Z,3.70
2023-03-21T14:14:42.093Z,3.70
2023-03-21T14:17:29.309Z,3.70
2023-03-21T14:20:02.601Z,3.30
2023-03-21T14:22:29.957Z,3.70
2023-03-21T14:24:59.408Z,3.80
2023-03-21T14:27:31.026Z,4.10
2023-03-21T14:29:59.177Z,3.80
2023-03-21T14:32:27.802Z,4.00
2023-03-21T14:34:55.866Z,3.80
2023-03-21T14:37:39.492Z,4.20
2023-03-21T14:40:19.120Z,4.50
2023-03-21T14:42:48.540Z,3.80
2023-03-21T14:45:28.803Z,4.10
2023-03-21T14:47:58.171Z,3.70
2023-03-21T14:50:31.816Z,3.20
2023-03-21T14:52:59.582Z,3.50
2023-03-21T14:55:27.649Z,3.10
2023-03-21T14:57:56.121Z,3.20
2023-03-21T15:00:29.101Z,3.20
2023-03-21T15:02:59.150Z,3.70
2023-03-21T15:05:38.180Z,3.40
2023-03-21T15:08:21.104Z,3.60
2023-03-21T15:11:08.129Z,3.20
2023-03-21T15:13:50.509Z,3.20
2023-03-21T15:16:18.185Z,3.40
2023-03-21T15:18:46.231Z,3.30
2023-03-21T15:21:17.768Z,3.10
2023-03-21T15:23:49.224Z,3.20
2023-03-21T15:26:18.232Z,3.00
2023-03-21T15:28:47.518Z,3.20
2023-03-21T15:31:21.169Z,3.40
2023-03-21T15:33:50.059Z,3.20
2023-03-21T15:36:22.490Z,3.00
2023-03-21T15:38:50.681Z,3.30
2023-03-21T15:41:20.639Z,3.30
2023-03-21T15:43:56.385Z,3.50
2023-03-21T15:46:43.886Z,3.30
2023-03-21T15:49:17.182Z,3.10
2023-03-21T15:51:47.290Z,3.20
2023-03-21T15:54:17.826Z,3.60
2023-03-21T15:56:51.912Z,3.30
2023-03-21T15:59:19.819Z,3.40
2023-03-21T16:01:50.140Z,3.30
2023-03-21T16:04:19.021Z,3.70
2023-03-21T16:07:05.384Z,3.50
2023-03-21T16:09:42.860Z,3.40
2023-03-21T16:12:12.823Z,3.30
2023-03-21T16:14:40.103Z,3.50
2023-03-21T16:17:33.836Z,3.40
2023-03-21T16:20:00.983Z,3.20
2023-03-21T16:22:29.371Z,3.40
2023-03-21T16:24:56.415Z,3.30
2023-03-21T16:27:23.472Z,3.40
2023-03-21T16:29:50.622Z,3.50
2023-03-21T16:32:18.374Z,3.60
2023-03-21T16:34:46.580Z,4.00
2023-03-21T16:37:17.307Z,3.70
2023-03-21T16:39:44.613Z,3.70
2023-03-21T16:42:13.262Z,3.40
2023-03-21T16:44:40.884Z,3.20
2023-03-21T16:47:17.036Z,3.30
2023-03-21T16:49:44.749Z,3.60
2023-03-21T16:52:12.959Z,3.40
2023-03-21T16:54:41.627Z,3.60
2023-03-21T16:57:18.602Z,3.80
2023-03-21T16:59:46.958Z,3.40
2023-03-21T17:02:16.674Z,3.60
2023-03-21T17:04:44.874Z,3.80
2023-03-21T17:07:15.922Z,3.70
2023-03-21T17:09:48.263Z,3.20
2023-03-21T17:12:16.405Z,3.80
2023-03-21T17:14:45.157Z,3.50
2023-03-21T17:17:16.916Z,3.50
2023-03-21T17:19:44.165Z,3.50
2023-03-21T17:22:13.397Z,3.40
2023-03-21T17:24:42.008Z,3.80
2023-03-21T17:27:17.754Z,3.50
2023-03-21T17:29:44.932Z,3.90
2023-03-21T17:32:15.205Z,3.60
2023-03-21T17:34:42.756Z,4.30
2023-03-21T17:37:11.558Z,4.10
2023-03-21T17:39:38.790Z,4.30
2023-03-21T17:42:11.782Z,4.50
2023-03-21T17:44:39.075Z,4.20
2023-03-21T17:47:06.178Z,4.30
2023-03-21T17:49:33.364Z,4.50
2023-03-21T17:52:00.604Z,4.40
2023-03-21T17:54:27.666Z,4.00
2023-03-21T17:56:56.782Z,3.80
2023-03-21T17:59:23.832Z,3.70
2023-03-21T18:01:50.986Z,3.80
2023-03-21T18:04:20.068Z,4.50
2023-03-21T18:06:47.937Z,3.50
2023-03-21T18:09:20.238Z,3.50
2023-03-21T18:11:48.800Z,3.70
2023-03-21T18:14:19.345Z,4.10
2023-03-21T18:16:51.047Z,3.50
2023-03-21T18:19:18.035Z,3.80
2023-03-21T18:21:45.957Z,3.90
2023-03-21T18:24:13.981Z,3.60
2023-03-21T18:26:41.691Z,3.10
2023-03-21T18:30:13.251Z,3.20
2023-03-21T18:32:07.041Z,2.90
2023-03-21T18:34:39.325Z,3.20
2023-03-21T18:37:08.877Z,3.10
2023-03-21T18:39:37.226Z,2.90
2023-03-21T18:42:05.413Z,3.30
2023-03-21T18:44:37.785Z,3.20
2023-03-21T18:47:06.894Z,3.00
2023-03-21T18:50:12.142Z,3.30
2023-03-21T18:52:22.885Z,3.10
2023-03-21T18:54:50.435Z,2.90
2023-03-21T18:57:35.610Z,2.90
2023-03-21T19:00:17.371Z,3.00
2023-03-21T19:02:48.063Z,3.00
2023-03-21T19:05:17.895Z,2.70
2023-03-21T19:07:45.826Z,2.90
2023-03-21T19:10:18.881Z,3.10
2023-03-21T19:12:51.863Z,2.90
2023-03-21T19:15:21.965Z,3.00
2023-03-21T19:20:42.529Z,3.20
2023-03-21T19:23:10.816Z,3.20
2023-03-21T19:25:38.374Z,3.50
2023-03-21T19:28:06.256Z,3.60
2023-03-21T19:30:34.201Z,4.20
2023-03-21T19:33:01.898Z,3.90
2023-03-21T19:35:29.107Z,4.10
2023-03-21T19:37:56.398Z,4.20
2023-03-21T19:40:24.055Z,4.00
2023-03-21T19:42:51.416Z,3.80
2023-03-21T19:45:18.598Z,4.20
2023-03-21T19:47:46.423Z,4.60
2023-03-21T19:53:00.824Z,4.60
2023-03-21T19:55:27.985Z,5.10
2023-03-21T19:57:55.526Z,4.60
2023-03-21T20:00:22.557Z,4.70
2023-03-21T20:02:49.892Z,4.60
2023-03-21T20:05:19.343Z,3.90
2023-03-21T20:07:47.114Z,5.00
2023-03-21T20:10:14.472Z,5.40
2023-03-21T20:12:41.619Z,4.60
2023-03-21T20:15:17.656Z,4.80
2023-03-21T20:17:47.653Z,5.50
2023-03-21T20:20:18.289Z,4.70
2023-03-21T20:25:39.361Z,5.10
2023-03-21T20:28:15.930Z,4.80
2023-03-21T20:30:57.122Z,4.00
2023-03-21T20:33:25.095Z,4.90
2023-03-21T20:38:55.940Z,5.00
2023-03-21T20:41:23.267Z,5.10
2023-03-21T20:46:37.925Z,4.30
2023-03-21T20:49:06.869Z,4.90
2023-03-21T20:54:21.717Z,5.40
2023-03-21T20:56:49.115Z,5.50
2023-03-21T20:59:25.676Z,5.60
2023-03-21T21:01:55.196Z,5.50
2023-03-21T21:04:23.128Z,5.60
2023-03-21T21:06:54.682Z,5.10
2023-03-21T21:09:22.234Z,5.30
2023-03-21T21:12:06.302Z,5.60
2023-03-21T21:14:37.321Z,5.30
2023-03-21T21:17:23.781Z,5.40
2023-03-21T21:19:53.340Z,5.60
2023-03-21T21:22:20.994Z,5.40
2023-03-21T21:24:48.174Z,5.60
2023-03-21T21:27:15.433Z,6.20
2023-03-21T21:29:43.685Z,6.20
2023-03-21T21:32:11.584Z,6.30
2023-03-21T21:34:38.857Z,5.70
2023-03-21T21:37:06.101Z,6.60
2023-03-21T21:39:35.361Z,6.60
2023-03-21T21:42:03.149Z,6.00
2023-03-21T21:44:30.712Z,6.00
2023-03-21T21:46:58.143Z,6.30
2023-03-21T21:49:25.426Z,6.50
2023-03-21T21:51:52.597Z,5.60
2023-03-21T21:54:19.744Z,6.90
2023-03-21T21:56:48.663Z,7.30
2023-03-21T21:59:22.254Z,8.30
2023-03-21T22:01:51.604Z,7.20
2023-03-21T22:04:24.992Z,7.10
2023-03-21T22:06:52.283Z,6.90
2023-03-21T22:09:19.553Z,7.00
2023-03-21T22:11:46.794Z,7.80
2023-03-21T22:14:13.945Z,7.20
2023-03-21T22:16:41.605Z,8.10
2023-03-21T22:19:08.981Z,8.40
2023-03-21T22:21:36.226Z,7.50
2023-03-21T22:24:03.615Z,7.50
2023-03-21T22:26:30.995Z,6.70
2023-03-21T22:29:00.259Z,6.50
2023-03-21T22:31:27.525Z,6.40
2023-03-21T22:33:54.793Z,6.00
2023-03-21T22:36:21.928Z,6.00
2023-03-21T22:38:49.079Z,6.10
2023-03-21T22:41:16.128Z,5.90
2023-03-21T22:43:43.299Z,6.00
2023-03-21T22:46:10.523Z,5.80
2023-03-21T22:48:38.200Z,5.70
2023-03-21T22:51:05.776Z,5.40
2023-03-21T22:53:32.923Z,5.70
2023-03-21T22:55:59.971Z,5.40
2023-03-21T22:58:26.940Z,5.10
2023-03-21T23:00:54.105Z,5.80
2023-03-21T23:03:21.239Z,6.50
2023-03-21T23:05:48.593Z,5.70
2023-03-21T23:08:16.283Z,4.90
2023-03-21T23:10:45.557Z,4.70
2023-03-21T23:13:12.933Z,4.70
2023-03-21T23:15:40.138Z,4.50
2023-03-21T23:18:07.806Z,4.20
2023-03-21T23:20:35.663Z,4.40
2023-03-21T23:23:03.115Z,4.80
2023-03-21T23:25:30.683Z,4.20
2023-03-21T23:27:57.900Z,3.60
2023-03-21T23:30:25.372Z,3.70
2023-03-21T23:32:52.715Z,3.70
2023-03-21T23:35:19.825Z,3.70
2023-03-21T23:37:52.661Z,3.60
2023-03-21T23:40:21.258Z,4.20
2023-03-21T23:42:48.340Z,3.30
2023-03-21T23:45:15.857Z,2.90
2023-03-21T23:47:42.956Z,3.00
2023-03-21T23:50:10.980Z,3.00
2023-03-21T23:52:38.771Z,2.90
2023-03-21T23:55:07.129Z,3.00
2023-03-21T23:57:34.411Z,2.90
